sensor_id;sensor_type;location;lat;lon;timestamp;temperature;humidity
7572;DHT22;3827;49.928;8.548;2023-05-07T00:00:45;15.20;99.90
7572;DHT22;3827;49.928;8.548;2023-05-07T00:03:13;15.20;99.90
7572;DHT22;3827;49.928;8.548;2023-05-07T00:05:40;15.20;99.90
7572;DHT22;3827;49.928;8.548;2023-05-07T00:08:07;15.40;99.90
7572;DHT22;3827;49.928;8.548;2023-05-07T00:10:34;15.10;99.90
7572;DHT22;3827;49.928;8.548;2023-05-07T00:13:01;15.20;99.90
7572;DHT22;3827;49.928;8.548;2023-05-07T00:15:28;15.10;99.90
7572;DHT22;3827;49.928;8.548;2023-05-07T00:17:55;15.50;99.90
7572;DHT22;3827;49.928;8.548;2023-05-07T00:20:24;15.20;99.90
7572;DHT22;3827;49.928;8.548;2023-05-07T00:22:51;15.10;99.90
7572;DHT22;3827;49.928;8.548;2023-05-07T00:25:19;15.10;99.90
7572;DHT22;3827;49.928;8.548;2023-05-07T00:27:46;15.10;99.90
7572;DHT22;3827;49.928;8.548;2023-05-07T00:30:13;15.10;99.90
7572;DHT22;3827;49.928;8.548;2023-05-07T00:32:40;15.00;99.90
7572;DHT22;3827;49.928;8.548;2023-05-07T00:35:08;14.90;99.90
7572;DHT22;3827;49.928;8.548;2023-05-07T00:37:36;14.90;99.90
7572;DHT22;3827;49.928;8.548;2023-05-07T00:40:03;14.80;99.90
7572;DHT22;3827;49.928;8.548;2023-05-07T00:42:32;14.80;99.90
7572;DHT22;3827;49.928;8.548;2023-05-07T00:44:59;14.70;99.90
7572;DHT22;3827;49.928;8.548;2023-05-07T00:47:26;14.70;99.90
7572;DHT22;3827;49.928;8.548;2023-05-07T00:49:53;14.60;99.90
7572;DHT22;3827;49.928;8.548;2023-05-07T00:52:21;14.60;99.90
7572;DHT22;3827;49.928;8.548;2023-05-07T00:54:52;14.50;99.90
7572;DHT22;3827;49.928;8.548;2023-05-07T00:57:19;14.50;99.90
7572;DHT22;3827;49.928;8.548;2023-05-07T00:59:47;14.40;99.90
7572;DHT22;3827;49.928;8.548;2023-05-07T01:02:14;14.60;99.90
7572;DHT22;3827;49.928;8.548;2023-05-07T01:04:41;14.50;99.90
7572;DHT22;3827;49.928;8.548;2023-05-07T01:07:08;14.50;99.90
7572;DHT22;3827;49.928;8.548;2023-05-07T01:09:36;14.50;99.90
7572;DHT22;3827;49.928;8.548;2023-05-07T01:12:05;14.50;99.90
7572;DHT22;3827;49.928;8.548;2023-05-07T01:14:33;14.50;99.90
7572;DHT22;3827;49.928;8.548;2023-05-07T01:17:00;14.50;99.90
7572;DHT22;3827;49.928;8.548;2023-05-07T01:19:29;14.70;99.90
7572;DHT22;3827;49.928;8.548;2023-05-07T01:22:01;14.50;99.90
7572;DHT22;3827;49.928;8.548;2023-05-07T01:24:31;14.50;99.90
7572;DHT22;3827;49.928;8.548;2023-05-07T01:26:59;14.50;99.90
7572;DHT22;3827;49.928;8.548;2023-05-07T01:29:26;14.50;99.90
7572;DHT22;3827;49.928;8.548;2023-05-07T01:31:55;14.60;99.90
7572;DHT22;3827;49.928;8.548;2023-05-07T01:34:24;14.50;99.90
7572;DHT22;3827;49.928;8.548;2023-05-07T01:36:52;14.60;99.90
7572;DHT22;3827;49.928;8.548;2023-05-07T01:39:21;14.60;99.90
7572;DHT22;3827;49.928;8.548;2023-05-07T01:41:50;14.60;99.90
7572;DHT22;3827;49.928;8.548;2023-05-07T01:44:18;14.60;99.90
7572;DHT22;3827;49.928;8.548;2023-05-07T01:46:46;14.60;99.90
7572;DHT22;3827;49.928;8.548;2023-05-07T01:49:14;14.60;99.90
7572;DHT22;3827;49.928;8.548;2023-05-07T01:51:41;14.60;99.90
7572;DHT22;3827;49.928;8.548;2023-05-07T01:54:09;14.60;99.90
7572;DHT22;3827;49.928;8.548;2023-05-07T01:56:35;14.60;99.90
7572;DHT22;3827;49.928;8.548;2023-05-07T01:59:04;14.60;99.90
7572;DHT22;3827;49.928;8.548;2023-05-07T02:01:31;14.60;99.90
7572;DHT22;3827;49.928;8.548;2023-05-07T02:03:57;14.60;99.90
7572;DHT22;3827;49.928;8.548;2023-05-07T02:06:24;14.60;99.90
7572;DHT22;3827;49.928;8.548;2023-05-07T02:08:51;14.60;99.90
7572;DHT22;3827;49.928;8.548;2023-05-07T02:11:18;14.60;99.90
7572;DHT22;3827;49.928;8.548;2023-05-07T02:13:45;14.60;99.90
7572;DHT22;3827;49.928;8.548;2023-05-07T02:16:13;14.50;99.90
7572;DHT22;3827;49.928;8.548;2023-05-07T02:18:40;14.60;99.90
7572;DHT22;3827;49.928;8.548;2023-05-07T02:21:07;14.60;99.90
7572;DHT22;3827;49.928;8.548;2023-05-07T02:23:34;14.50;99.90
7572;DHT22;3827;49.928;8.548;2023-05-07T02:26:01;14.50;99.90
7572;DHT22;3827;49.928;8.548;2023-05-07T02:28:28;14.60;99.90
7572;DHT22;3827;49.928;8.548;2023-05-07T02:30:55;14.50;99.90
7572;DHT22;3827;49.928;8.548;2023-05-07T02:33:25;14.50;99.90
7572;DHT22;3827;49.928;8.548;2023-05-07T02:35:52;14.50;99.90
7572;DHT22;3827;49.928;8.548;2023-05-07T02:38:19;14.50;99.90
7572;DHT22;3827;49.928;8.548;2023-05-07T02:40:46;14.50;99.90
7572;DHT22;3827;49.928;8.548;2023-05-07T02:43:13;14.50;99.90
7572;DHT22;3827;49.928;8.548;2023-05-07T02:45:39;14.50;99.90
7572;DHT22;3827;49.928;8.548;2023-05-07T02:48:06;14.50;99.90
7572;DHT22;3827;49.928;8.548;2023-05-07T02:50:35;14.50;99.90
7572;DHT22;3827;49.928;8.548;2023-05-07T02:53:01;14.40;99.90
7572;DHT22;3827;49.928;8.548;2023-05-07T02:55:29;14.50;99.90
7572;DHT22;3827;49.928;8.548;2023-05-07T02:57:56;14.50;99.90
7572;DHT22;3827;49.928;8.548;2023-05-07T03:00:23;14.40;99.90
7572;DHT22;3827;49.928;8.548;2023-05-07T03:02:50;14.50;99.90
7572;DHT22;3827;49.928;8.548;2023-05-07T03:05:17;14.40;99.90
7572;DHT22;3827;49.928;8.548;2023-05-07T03:07:45;14.40;99.90
7572;DHT22;3827;49.928;8.548;2023-05-07T03:10:13;14.50;99.90
7572;DHT22;3827;49.928;8.548;2023-05-07T03:12:40;14.40;99.90
7572;DHT22;3827;49.928;8.548;2023-05-07T03:15:08;14.40;99.90
7572;DHT22;3827;49.928;8.548;2023-05-07T03:17:36;14.40;99.90
7572;DHT22;3827;49.928;8.548;2023-05-07T03:20:03;14.40;99.90
7572;DHT22;3827;49.928;8.548;2023-05-07T03:22:30;14.40;99.90
7572;DHT22;3827;49.928;8.548;2023-05-07T03:24:58;14.40;99.90
7572;DHT22;3827;49.928;8.548;2023-05-07T03:27:25;14.40;99.90
7572;DHT22;3827;49.928;8.548;2023-05-07T03:29:52;14.40;99.90
7572;DHT22;3827;49.928;8.548;2023-05-07T03:32:19;14.40;99.90
7572;DHT22;3827;49.928;8.548;2023-05-07T03:34:46;14.40;99.90
7572;DHT22;3827;49.928;8.548;2023-05-07T03:37:13;14.40;99.90
7572;DHT22;3827;49.928;8.548;2023-05-07T03:39:40;14.40;99.90
7572;DHT22;3827;49.928;8.548;2023-05-07T03:42:08;14.40;99.90
7572;DHT22;3827;49.928;8.548;2023-05-07T03:44:35;14.30;99.90
7572;DHT22;3827;49.928;8.548;2023-05-07T03:47:02;14.30;99.90
7572;DHT22;3827;49.928;8.548;2023-05-07T03:49:29;14.30;99.90
7572;DHT22;3827;49.928;8.548;2023-05-07T03:51:56;14.30;99.90
7572;DHT22;3827;49.928;8.548;2023-05-07T03:54:23;14.40;99.90
7572;DHT22;3827;49.928;8.548;2023-05-07T03:56:50;14.40;99.90
7572;DHT22;3827;49.928;8.548;2023-05-07T03:59:18;14.30;99.90
7572;DHT22;3827;49.928;8.548;2023-05-07T04:01:45;14.30;99.90
7572;DHT22;3827;49.928;8.548;2023-05-07T04:04:12;14.30;99.90
7572;DHT22;3827;49.928;8.548;2023-05-07T04:06:39;14.30;99.90
7572;DHT22;3827;49.928;8.548;2023-05-07T04:09:06;14.30;99.90
7572;DHT22;3827;49.928;8.548;2023-05-07T04:11:35;14.20;99.90
7572;DHT22;3827;49.928;8.548;2023-05-07T04:14:02;14.20;99.90
7572;DHT22;3827;49.928;8.548;2023-05-07T04:16:30;14.20;99.90
7572;DHT22;3827;49.928;8.548;2023-05-07T04:18:57;14.20;99.90
7572;DHT22;3827;49.928;8.548;2023-05-07T04:21:24;14.30;99.90
7572;DHT22;3827;49.928;8.548;2023-05-07T04:23:52;14.20;99.90
7572;DHT22;3827;49.928;8.548;2023-05-07T04:26:18;14.30;99.90
7572;DHT22;3827;49.928;8.548;2023-05-07T04:28:46;14.40;99.90
7572;DHT22;3827;49.928;8.548;2023-05-07T04:31:13;14.40;99.90
7572;DHT22;3827;49.928;8.548;2023-05-07T04:33:42;14.50;99.90
7572;DHT22;3827;49.928;8.548;2023-05-07T04:36:09;14.50;99.90
7572;DHT22;3827;49.928;8.548;2023-05-07T04:38:36;14.40;99.90
7572;DHT22;3827;49.928;8.548;2023-05-07T04:41:06;14.40;99.90
7572;DHT22;3827;49.928;8.548;2023-05-07T04:43:33;14.40;99.90
7572;DHT22;3827;49.928;8.548;2023-05-07T04:46:00;14.40;99.90
7572;DHT22;3827;49.928;8.548;2023-05-07T04:48:27;14.40;99.90
7572;DHT22;3827;49.928;8.548;2023-05-07T04:50:55;14.40;99.90
7572;DHT22;3827;49.928;8.548;2023-05-07T04:53:22;14.40;99.90
7572;DHT22;3827;49.928;8.548;2023-05-07T04:55:55;14.40;99.90
7572;DHT22;3827;49.928;8.548;2023-05-07T04:58:22;14.50;99.90
7572;DHT22;3827;49.928;8.548;2023-05-07T05:00:49;14.50;99.90
7572;DHT22;3827;49.928;8.548;2023-05-07T05:03:16;14.50;99.90
7572;DHT22;3827;49.928;8.548;2023-05-07T05:05:43;14.50;99.90
7572;DHT22;3827;49.928;8.548;2023-05-07T05:08:11;14.60;99.90
7572;DHT22;3827;49.928;8.548;2023-05-07T05:10:38;14.60;99.90
7572;DHT22;3827;49.928;8.548;2023-05-07T05:13:06;14.70;99.90
7572;DHT22;3827;49.928;8.548;2023-05-07T05:15:33;14.70;99.90
7572;DHT22;3827;49.928;8.548;2023-05-07T05:18:00;14.80;99.90
7572;DHT22;3827;49.928;8.548;2023-05-07T05:20:27;14.80;99.90
7572;DHT22;3827;49.928;8.548;2023-05-07T05:22:54;14.90;99.90
7572;DHT22;3827;49.928;8.548;2023-05-07T05:25:22;14.90;99.90
7572;DHT22;3827;49.928;8.548;2023-05-07T05:27:49;15.00;99.90
7572;DHT22;3827;49.928;8.548;2023-05-07T05:30:16;15.00;99.90
7572;DHT22;3827;49.928;8.548;2023-05-07T05:32:43;15.10;99.90
7572;DHT22;3827;49.928;8.548;2023-05-07T05:35:10;15.20;99.90
7572;DHT22;3827;49.928;8.548;2023-05-07T05:37:36;15.30;99.90
7572;DHT22;3827;49.928;8.548;2023-05-07T05:40:04;15.30;99.90
7572;DHT22;3827;49.928;8.548;2023-05-07T05:42:32;15.40;99.90
7572;DHT22;3827;49.928;8.548;2023-05-07T05:44:59;15.50;99.90
7572;DHT22;3827;49.928;8.548;2023-05-07T05:47:26;15.60;99.90
7572;DHT22;3827;49.928;8.548;2023-05-07T05:49:53;15.70;99.90
7572;DHT22;3827;49.928;8.548;2023-05-07T05:52:20;15.70;99.90
7572;DHT22;3827;49.928;8.548;2023-05-07T05:54:49;15.80;99.90
7572;DHT22;3827;49.928;8.548;2023-05-07T05:57:16;15.90;99.90
7572;DHT22;3827;49.928;8.548;2023-05-07T05:59:44;15.90;99.90
7572;DHT22;3827;49.928;8.548;2023-05-07T06:02:12;15.90;99.90
7572;DHT22;3827;49.928;8.548;2023-05-07T06:04:39;16.00;99.90
7572;DHT22;3827;49.928;8.548;2023-05-07T06:07:07;16.00;99.90
7572;DHT22;3827;49.928;8.548;2023-05-07T06:09:34;16.10;99.90
7572;DHT22;3827;49.928;8.548;2023-05-07T06:12:01;16.20;99.90
7572;DHT22;3827;49.928;8.548;2023-05-07T06:14:28;16.20;99.90
7572;DHT22;3827;49.928;8.548;2023-05-07T06:16:56;16.30;99.90
7572;DHT22;3827;49.928;8.548;2023-05-07T06:19:23;17.90;99.90
7572;DHT22;3827;49.928;8.548;2023-05-07T06:21:52;16.50;99.90
7572;DHT22;3827;49.928;8.548;2023-05-07T06:24:19;16.40;99.90
7572;DHT22;3827;49.928;8.548;2023-05-07T06:26:45;16.40;99.90
7572;DHT22;3827;49.928;8.548;2023-05-07T06:29:12;16.50;99.90
7572;DHT22;3827;49.928;8.548;2023-05-07T06:31:39;16.50;99.90
7572;DHT22;3827;49.928;8.548;2023-05-07T06:34:08;16.50;99.90
7572;DHT22;3827;49.928;8.548;2023-05-07T06:36:35;16.50;99.90
7572;DHT22;3827;49.928;8.548;2023-05-07T06:39:02;16.40;99.90
7572;DHT22;3827;49.928;8.548;2023-05-07T06:41:29;16.50;99.90
7572;DHT22;3827;49.928;8.548;2023-05-07T06:43:56;16.50;99.90
7572;DHT22;3827;49.928;8.548;2023-05-07T06:46:23;16.40;99.90
7572;DHT22;3827;49.928;8.548;2023-05-07T06:48:50;16.70;99.90
7572;DHT22;3827;49.928;8.548;2023-05-07T06:51:19;16.80;99.90
7572;DHT22;3827;49.928;8.548;2023-05-07T06:53:45;17.00;99.90
7572;DHT22;3827;49.928;8.548;2023-05-07T06:56:12;16.90;99.90
7572;DHT22;3827;49.928;8.548;2023-05-07T06:58:39;16.90;99.90
7572;DHT22;3827;49.928;8.548;2023-05-07T07:01:06;17.00;99.90
7572;DHT22;3827;49.928;8.548;2023-05-07T07:03:33;17.00;99.90
7572;DHT22;3827;49.928;8.548;2023-05-07T07:06:01;17.20;99.90
7572;DHT22;3827;49.928;8.548;2023-05-07T07:08:30;17.10;99.90
7572;DHT22;3827;49.928;8.548;2023-05-07T07:10:57;17.20;99.90
7572;DHT22;3827;49.928;8.548;2023-05-07T07:13:24;17.20;99.90
7572;DHT22;3827;49.928;8.548;2023-05-07T07:15:51;17.10;99.90
7572;DHT22;3827;49.928;8.548;2023-05-07T07:18:18;17.20;99.90
7572;DHT22;3827;49.928;8.548;2023-05-07T07:20:45;17.30;99.90
7572;DHT22;3827;49.928;8.548;2023-05-07T07:23:12;17.30;99.90
7572;DHT22;3827;49.928;8.548;2023-05-07T07:25:41;17.30;99.90
7572;DHT22;3827;49.928;8.548;2023-05-07T07:28:08;17.40;99.90
7572;DHT22;3827;49.928;8.548;2023-05-07T07:30:36;17.70;99.90
7572;DHT22;3827;49.928;8.548;2023-05-07T07:33:03;17.70;99.90
7572;DHT22;3827;49.928;8.548;2023-05-07T07:35:30;17.70;99.90
7572;DHT22;3827;49.928;8.548;2023-05-07T07:37:57;17.90;99.90
7572;DHT22;3827;49.928;8.548;2023-05-07T07:40:25;17.90;99.90
7572;DHT22;3827;49.928;8.548;2023-05-07T07:42:53;17.90;99.90
7572;DHT22;3827;49.928;8.548;2023-05-07T07:45:21;18.00;99.90
7572;DHT22;3827;49.928;8.548;2023-05-07T07:47:47;17.90;99.90
7572;DHT22;3827;49.928;8.548;2023-05-07T07:50:15;17.90;99.90
7572;DHT22;3827;49.928;8.548;2023-05-07T07:52:41;17.80;99.90
7572;DHT22;3827;49.928;8.548;2023-05-07T07:55:09;17.90;99.90
7572;DHT22;3827;49.928;8.548;2023-05-07T07:57:36;17.80;99.90
7572;DHT22;3827;49.928;8.548;2023-05-07T08:00:06;17.80;99.90
7572;DHT22;3827;49.928;8.548;2023-05-07T08:02:34;18.00;99.90
7572;DHT22;3827;49.928;8.548;2023-05-07T08:05:02;18.10;99.90
7572;DHT22;3827;49.928;8.548;2023-05-07T08:07:29;18.10;99.90
7572;DHT22;3827;49.928;8.548;2023-05-07T08:09:56;18.20;99.90
7572;DHT22;3827;49.928;8.548;2023-05-07T08:12:23;18.10;99.90
7572;DHT22;3827;49.928;8.548;2023-05-07T08:14:50;18.20;99.90
7572;DHT22;3827;49.928;8.548;2023-05-07T08:17:19;18.20;99.90
7572;DHT22;3827;49.928;8.548;2023-05-07T08:19:47;18.30;99.90
7572;DHT22;3827;49.928;8.548;2023-05-07T08:22:14;18.20;99.90
7572;DHT22;3827;49.928;8.548;2023-05-07T08:24:43;18.30;99.90
7572;DHT22;3827;49.928;8.548;2023-05-07T08:27:10;18.60;99.90
7572;DHT22;3827;49.928;8.548;2023-05-07T08:29:37;18.70;99.90
7572;DHT22;3827;49.928;8.548;2023-05-07T08:32:04;18.60;99.90
7572;DHT22;3827;49.928;8.548;2023-05-07T08:34:32;18.60;99.90
7572;DHT22;3827;49.928;8.548;2023-05-07T08:36:59;18.60;99.90
7572;DHT22;3827;49.928;8.548;2023-05-07T08:39:26;18.80;99.90
7572;DHT22;3827;49.928;8.548;2023-05-07T08:41:55;19.10;99.90
7572;DHT22;3827;49.928;8.548;2023-05-07T08:44:23;19.50;99.90
7572;DHT22;3827;49.928;8.548;2023-05-07T08:46:53;19.30;99.90
7572;DHT22;3827;49.928;8.548;2023-05-07T08:49:22;19.40;99.90
7572;DHT22;3827;49.928;8.548;2023-05-07T08:51:50;19.60;99.90
7572;DHT22;3827;49.928;8.548;2023-05-07T08:54:18;19.80;99.90
7572;DHT22;3827;49.928;8.548;2023-05-07T08:56:45;19.80;99.90
7572;DHT22;3827;49.928;8.548;2023-05-07T08:59:12;20.00;99.90
7572;DHT22;3827;49.928;8.548;2023-05-07T09:01:39;20.30;99.90
7572;DHT22;3827;49.928;8.548;2023-05-07T09:04:06;20.60;99.90
7572;DHT22;3827;49.928;8.548;2023-05-07T09:06:34;20.70;99.90
7572;DHT22;3827;49.928;8.548;2023-05-07T09:09:04;20.70;99.90
7572;DHT22;3827;49.928;8.548;2023-05-07T09:11:31;21.00;99.90
7572;DHT22;3827;49.928;8.548;2023-05-07T09:13:58;20.90;99.90
7572;DHT22;3827;49.928;8.548;2023-05-07T09:16:28;20.80;99.90
7572;DHT22;3827;49.928;8.548;2023-05-07T09:18:58;20.50;99.90
7572;DHT22;3827;49.928;8.548;2023-05-07T09:21:25;20.60;99.90
7572;DHT22;3827;49.928;8.548;2023-05-07T09:23:53;20.80;99.90
7572;DHT22;3827;49.928;8.548;2023-05-07T09:26:23;21.30;99.90
7572;DHT22;3827;49.928;8.548;2023-05-07T09:28:50;21.20;99.90
7572;DHT22;3827;49.928;8.548;2023-05-07T09:31:17;21.30;99.90
7572;DHT22;3827;49.928;8.548;2023-05-07T09:33:44;21.50;99.90
7572;DHT22;3827;49.928;8.548;2023-05-07T09:36:11;21.90;99.90
7572;DHT22;3827;49.928;8.548;2023-05-07T09:38:38;22.20;99.90
7572;DHT22;3827;49.928;8.548;2023-05-07T09:41:07;22.00;99.90
7572;DHT22;3827;49.928;8.548;2023-05-07T09:43:37;22.20;99.90
7572;DHT22;3827;49.928;8.548;2023-05-07T09:46:07;22.20;99.90
7572;DHT22;3827;49.928;8.548;2023-05-07T09:48:39;22.40;99.90
7572;DHT22;3827;49.928;8.548;2023-05-07T09:51:15;22.80;99.90
7572;DHT22;3827;49.928;8.548;2023-05-07T09:53:45;22.80;99.90
7572;DHT22;3827;49.928;8.548;2023-05-07T09:56:13;23.00;99.90
7572;DHT22;3827;49.928;8.548;2023-05-07T09:58:43;23.30;99.90
7572;DHT22;3827;49.928;8.548;2023-05-07T10:01:12;23.60;99.90
7572;DHT22;3827;49.928;8.548;2023-05-07T10:03:40;23.50;99.90
7572;DHT22;3827;49.928;8.548;2023-05-07T10:06:09;23.10;99.90
7572;DHT22;3827;49.928;8.548;2023-05-07T10:08:36;22.90;99.90
7572;DHT22;3827;49.928;8.548;2023-05-07T10:11:04;23.00;99.90
7572;DHT22;3827;49.928;8.548;2023-05-07T10:13:31;22.80;99.90
7572;DHT22;3827;49.928;8.548;2023-05-07T10:16:00;22.90;99.90
7572;DHT22;3827;49.928;8.548;2023-05-07T10:18:28;23.00;99.90
7572;DHT22;3827;49.928;8.548;2023-05-07T10:21:02;23.00;99.90
7572;DHT22;3827;49.928;8.548;2023-05-07T10:23:31;23.40;99.90
7572;DHT22;3827;49.928;8.548;2023-05-07T10:25:59;23.40;99.90
7572;DHT22;3827;49.928;8.548;2023-05-07T10:28:27;23.60;99.90
7572;DHT22;3827;49.928;8.548;2023-05-07T10:31:03;23.80;99.90
7572;DHT22;3827;49.928;8.548;2023-05-07T10:33:34;24.00;99.90
7572;DHT22;3827;49.928;8.548;2023-05-07T10:36:05;24.10;99.90
7572;DHT22;3827;49.928;8.548;2023-05-07T10:38:33;23.90;99.90
7572;DHT22;3827;49.928;8.548;2023-05-07T10:41:01;24.30;99.90
7572;DHT22;3827;49.928;8.548;2023-05-07T10:43:39;24.10;99.90
7572;DHT22;3827;49.928;8.548;2023-05-07T10:46:14;24.30;99.90
7572;DHT22;3827;49.928;8.548;2023-05-07T10:49:08;25.30;99.90
7572;DHT22;3827;49.928;8.548;2023-05-07T10:51:36;25.80;99.90
7572;DHT22;3827;49.928;8.548;2023-05-07T10:54:22;26.30;99.90
7572;DHT22;3827;49.928;8.548;2023-05-07T10:56:52;26.60;99.90
7572;DHT22;3827;49.928;8.548;2023-05-07T10:59:35;26.60;99.90
7572;DHT22;3827;49.928;8.548;2023-05-07T11:02:09;27.10;99.90
7572;DHT22;3827;49.928;8.548;2023-05-07T11:04:37;26.80;99.90
7572;DHT22;3827;49.928;8.548;2023-05-07T11:07:28;26.90;99.90
7572;DHT22;3827;49.928;8.548;2023-05-07T11:09:57;27.30;99.90
7572;DHT22;3827;49.928;8.548;2023-05-07T11:12:51;27.30;99.90
7572;DHT22;3827;49.928;8.548;2023-05-07T11:15:48;26.90;99.90
7572;DHT22;3827;49.928;8.548;2023-05-07T11:18:17;26.70;99.90
7572;DHT22;3827;49.928;8.548;2023-05-07T11:20:56;27.30;99.90
7572;DHT22;3827;49.928;8.548;2023-05-07T11:26:29;26.70;99.90
7572;DHT22;3827;49.928;8.548;2023-05-07T11:28:57;27.00;99.90
7572;DHT22;3827;49.928;8.548;2023-05-07T11:31:27;27.30;99.90
7572;DHT22;3827;49.928;8.548;2023-05-07T11:33:57;27.80;99.90
7572;DHT22;3827;49.928;8.548;2023-05-07T11:36:25;28.00;99.90
7572;DHT22;3827;49.928;8.548;2023-05-07T11:38:53;27.30;99.90
7572;DHT22;3827;49.928;8.548;2023-05-07T11:41:20;27.70;99.90
7572;DHT22;3827;49.928;8.548;2023-05-07T11:43:57;27.30;99.90
7572;DHT22;3827;49.928;8.548;2023-05-07T11:46:24;27.30;99.90
7572;DHT22;3827;49.928;8.548;2023-05-07T11:48:51;27.50;99.90
7572;DHT22;3827;49.928;8.548;2023-05-07T11:51:21;27.80;99.90
7572;DHT22;3827;49.928;8.548;2023-05-07T11:53:48;27.70;99.90
7572;DHT22;3827;49.928;8.548;2023-05-07T11:56:16;27.20;99.90
7572;DHT22;3827;49.928;8.548;2023-05-07T11:58:45;27.20;99.90
7572;DHT22;3827;49.928;8.548;2023-05-07T12:01:13;27.30;99.90
7572;DHT22;3827;49.928;8.548;2023-05-07T12:03:41;27.40;99.90
7572;DHT22;3827;49.928;8.548;2023-05-07T12:06:09;27.20;99.90
7572;DHT22;3827;49.928;8.548;2023-05-07T12:08:40;27.00;99.90
7572;DHT22;3827;49.928;8.548;2023-05-07T12:11:08;26.40;99.90
7572;DHT22;3827;49.928;8.548;2023-05-07T12:13:37;26.40;99.90
7572;DHT22;3827;49.928;8.548;2023-05-07T12:16:05;25.80;99.90
7572;DHT22;3827;49.928;8.548;2023-05-07T12:18:34;26.20;99.90
7572;DHT22;3827;49.928;8.548;2023-05-07T12:21:02;26.40;99.90
7572;DHT22;3827;49.928;8.548;2023-05-07T12:23:30;26.50;99.90
7572;DHT22;3827;49.928;8.548;2023-05-07T12:25:59;27.10;99.90
7572;DHT22;3827;49.928;8.548;2023-05-07T12:28:26;27.00;99.90
7572;DHT22;3827;49.928;8.548;2023-05-07T12:30:53;27.30;99.90
7572;DHT22;3827;49.928;8.548;2023-05-07T12:33:24;28.00;99.90
7572;DHT22;3827;49.928;8.548;2023-05-07T12:35:53;28.50;99.90
7572;DHT22;3827;49.928;8.548;2023-05-07T12:38:21;28.60;99.90
7572;DHT22;3827;49.928;8.548;2023-05-07T12:40:49;28.50;99.90
7572;DHT22;3827;49.928;8.548;2023-05-07T12:43:19;28.90;99.90
7572;DHT22;3827;49.928;8.548;2023-05-07T12:45:48;28.80;99.90
7572;DHT22;3827;49.928;8.548;2023-05-07T12:48:15;29.30;99.90
7572;DHT22;3827;49.928;8.548;2023-05-07T12:50:43;29.60;99.90
7572;DHT22;3827;49.928;8.548;2023-05-07T12:53:11;29.80;99.90
7572;DHT22;3827;49.928;8.548;2023-05-07T12:55:42;29.90;99.90
7572;DHT22;3827;49.928;8.548;2023-05-07T12:58:15;29.60;99.90
7572;DHT22;3827;49.928;8.548;2023-05-07T13:00:46;29.00;99.90
7572;DHT22;3827;49.928;8.548;2023-05-07T13:03:21;28.30;99.90
7572;DHT22;3827;49.928;8.548;2023-05-07T13:05:48;28.10;99.90
7572;DHT22;3827;49.928;8.548;2023-05-07T13:08:24;28.00;99.90
7572;DHT22;3827;49.928;8.548;2023-05-07T13:10:51;29.50;99.90
7572;DHT22;3827;49.928;8.548;2023-05-07T13:13:18;28.30;99.90
7572;DHT22;3827;49.928;8.548;2023-05-07T13:15:47;28.40;99.90
7572;DHT22;3827;49.928;8.548;2023-05-07T13:18:14;28.10;99.90
7572;DHT22;3827;49.928;8.548;2023-05-07T13:20:41;27.50;99.90
7572;DHT22;3827;49.928;8.548;2023-05-07T13:23:08;27.30;99.90
7572;DHT22;3827;49.928;8.548;2023-05-07T13:25:35;27.80;99.90
7572;DHT22;3827;49.928;8.548;2023-05-07T13:28:02;27.90;99.90
7572;DHT22;3827;49.928;8.548;2023-05-07T13:30:30;28.00;99.90
7572;DHT22;3827;49.928;8.548;2023-05-07T13:32:58;28.40;99.90
7572;DHT22;3827;49.928;8.548;2023-05-07T13:35:25;27.80;99.90
7572;DHT22;3827;49.928;8.548;2023-05-07T13:37:52;28.00;99.90
7572;DHT22;3827;49.928;8.548;2023-05-07T13:40:20;28.20;99.90
7572;DHT22;3827;49.928;8.548;2023-05-07T13:42:47;28.40;99.90
7572;DHT22;3827;49.928;8.548;2023-05-07T13:45:14;28.60;99.90
7572;DHT22;3827;49.928;8.548;2023-05-07T13:47:41;28.60;99.90
7572;DHT22;3827;49.928;8.548;2023-05-07T13:50:10;28.70;99.90
7572;DHT22;3827;49.928;8.548;2023-05-07T13:52:39;29.40;99.90
7572;DHT22;3827;49.928;8.548;2023-05-07T13:55:09;29.30;99.90
7572;DHT22;3827;49.928;8.548;2023-05-07T13:57:37;28.80;99.90
7572;DHT22;3827;49.928;8.548;2023-05-07T14:00:06;28.30;99.90
7572;DHT22;3827;49.928;8.548;2023-05-07T14:02:34;28.60;99.90
7572;DHT22;3827;49.928;8.548;2023-05-07T14:05:01;28.90;99.90
7572;DHT22;3827;49.928;8.548;2023-05-07T14:07:29;28.60;99.90
7572;DHT22;3827;49.928;8.548;2023-05-07T14:09:56;27.90;99.90
7572;DHT22;3827;49.928;8.548;2023-05-07T14:12:23;28.20;99.90
7572;DHT22;3827;49.928;8.548;2023-05-07T14:14:50;27.80;99.90
7572;DHT22;3827;49.928;8.548;2023-05-07T14:17:18;27.90;99.90
7572;DHT22;3827;49.928;8.548;2023-05-07T14:19:45;27.60;99.90
7572;DHT22;3827;49.928;8.548;2023-05-07T14:22:13;27.60;99.90
7572;DHT22;3827;49.928;8.548;2023-05-07T14:24:42;27.60;99.90
7572;DHT22;3827;49.928;8.548;2023-05-07T14:27:09;27.30;99.90
7572;DHT22;3827;49.928;8.548;2023-05-07T14:29:36;27.30;99.90
7572;DHT22;3827;49.928;8.548;2023-05-07T14:32:03;27.00;99.90
7572;DHT22;3827;49.928;8.548;2023-05-07T14:34:31;27.20;99.90
7572;DHT22;3827;49.928;8.548;2023-05-07T14:36:59;27.00;99.90
7572;DHT22;3827;49.928;8.548;2023-05-07T14:39:27;26.90;99.90
7572;DHT22;3827;49.928;8.548;2023-05-07T14:41:55;26.80;99.90
7572;DHT22;3827;49.928;8.548;2023-05-07T14:44:23;26.70;99.90
7572;DHT22;3827;49.928;8.548;2023-05-07T14:46:50;26.40;99.90
7572;DHT22;3827;49.928;8.548;2023-05-07T14:49:17;26.20;99.90
7572;DHT22;3827;49.928;8.548;2023-05-07T14:51:44;26.20;99.90
7572;DHT22;3827;49.928;8.548;2023-05-07T14:54:12;26.10;99.90
7572;DHT22;3827;49.928;8.548;2023-05-07T14:56:39;26.00;99.90
7572;DHT22;3827;49.928;8.548;2023-05-07T14:59:08;25.80;99.90
7572;DHT22;3827;49.928;8.548;2023-05-07T15:01:36;25.50;99.90
7572;DHT22;3827;49.928;8.548;2023-05-07T15:04:04;25.50;99.90
7572;DHT22;3827;49.928;8.548;2023-05-07T15:06:31;26.60;99.90
7572;DHT22;3827;49.928;8.548;2023-05-07T15:08:59;25.40;99.90
7572;DHT22;3827;49.928;8.548;2023-05-07T15:11:26;25.30;99.90
7572;DHT22;3827;49.928;8.548;2023-05-07T15:13:53;25.20;99.90
7572;DHT22;3827;49.928;8.548;2023-05-07T15:16:21;25.10;99.90
7572;DHT22;3827;49.928;8.548;2023-05-07T15:18:48;25.10;99.90
7572;DHT22;3827;49.928;8.548;2023-05-07T15:21:16;25.00;99.90
7572;DHT22;3827;49.928;8.548;2023-05-07T15:23:43;24.90;99.90
7572;DHT22;3827;49.928;8.548;2023-05-07T15:26:11;24.80;99.90
7572;DHT22;3827;49.928;8.548;2023-05-07T15:29:07;24.70;99.90
7572;DHT22;3827;49.928;8.548;2023-05-07T15:31:37;24.60;99.90
7572;DHT22;3827;49.928;8.548;2023-05-07T15:34:04;24.40;99.90
7572;DHT22;3827;49.928;8.548;2023-05-07T15:36:31;24.30;99.90
7572;DHT22;3827;49.928;8.548;2023-05-07T15:38:58;24.10;99.90
7572;DHT22;3827;49.928;8.548;2023-05-07T15:41:27;24.00;99.90
7572;DHT22;3827;49.928;8.548;2023-05-07T15:43:54;23.90;99.90
7572;DHT22;3827;49.928;8.548;2023-05-07T15:48:54;23.70;99.90
7572;DHT22;3827;49.928;8.548;2023-05-07T15:51:22;23.70;99.90
7572;DHT22;3827;49.928;8.548;2023-05-07T15:53:49;23.60;99.90
7572;DHT22;3827;49.928;8.548;2023-05-07T15:56:17;23.50;99.90
7572;DHT22;3827;49.928;8.548;2023-05-07T15:58:44;23.40;99.90
7572;DHT22;3827;49.928;8.548;2023-05-07T16:01:12;23.30;99.90
7572;DHT22;3827;49.928;8.548;2023-05-07T16:03:39;23.20;99.90
7572;DHT22;3827;49.928;8.548;2023-05-07T16:06:08;22.90;99.90
7572;DHT22;3827;49.928;8.548;2023-05-07T16:08:37;22.00;99.90
7572;DHT22;3827;49.928;8.548;2023-05-07T16:11:04;21.10;99.90
7572;DHT22;3827;49.928;8.548;2023-05-07T16:13:31;20.30;99.90